Time;durP1;ratioP1;P1;durP2;ratioP2;P2;SDS_P1;SDS_P2;PMS_P1;PMS_P2;Temp;Humidity;BMP_temperature;BMP_pressure;BME280_temperature;BME280_humidity;BME280_pressure;Samples;Min_cycle;Max_cycle;Signal;HPM_P1;HPM_P2
2021/05/19 00:01:18;;;;;;;15.60;8.32;;;358.40;2329.60;;;;;;5053274;28;20119;-79
2021/05/19 00:03:43;;;;;;;16.05;7.22;;;333.70;2329.60;;;;;;5071843;28;20017;-82
2021/05/19 00:06:09;;;;;;;15.15;7.32;;;333.60;2329.60;;;;;;5053166;28;20035;-80
2021/05/19 00:08:35;;;;;;;15.75;7.78;;;333.40;2329.60;;;;;;5052976;28;20055;-81
2021/05/19 00:11:01;;;;;;;9.63;7.07;;;333.30;2329.60;;;;;;5053179;28;20029;-81
2021/05/19 00:13:29;;;;;;;13.57;8.13;;;333.30;2329.60;;;;;;5071432;28;20024;-80
2021/05/19 00:15:55;;;;;;;11.38;7.50;;;333.30;2329.60;;;;;;5053599;28;20020;-81
2021/05/19 00:18:21;;;;;;;14.95;7.15;;;333.30;2329.60;;;;;;5071616;28;20044;-81
2021/05/19 00:20:46;;;;;;;12.38;6.65;;;333.20;2329.60;;;;;;5053941;28;20491;-81
2021/05/19 00:23:12;;;;;;;9.80;7.53;;;333.20;2329.60;;;;;;5072952;28;20052;-81
2021/05/19 00:25:38;;;;;;;13.55;6.72;;;333.10;2329.60;;;;;;5057879;28;20036;-80
2021/05/19 00:28:05;;;;;;;9.52;5.70;;;333.10;2329.60;;;;;;5075301;28;20031;-81
2021/05/19 00:30:32;;;;;;;7.47;5.00;;;333.20;2329.60;;;;;;5057830;28;20387;-81
2021/05/19 00:32:58;;;;;;;6.80;4.50;;;333.40;2329.60;;;;;;5075062;28;20031;-80
2021/05/19 00:35:23;;;;;;;8.55;5.32;;;333.40;2329.60;;;;;;5057426;28;20024;-81
2021/05/19 00:37:49;;;;;;;8.57;5.65;;;333.40;2329.60;;;;;;5074094;28;20048;-80
2021/05/19 00:40:15;;;;;;;9.45;6.13;;;333.30;2329.60;;;;;;5075276;28;20360;-81
2021/05/19 00:42:41;;;;;;;7.45;5.25;;;333.20;2329.60;;;;;;5057448;28;20052;-81
2021/05/19 00:45:09;;;;;;;8.10;5.07;;;333.10;2329.60;;;;;;5075136;28;20447;-80
2021/05/19 00:47:42;;;;;;;7.65;5.43;;;333.10;2329.60;;;;;;5075239;28;20089;-81
2021/05/19 00:50:12;;;;;;;7.38;5.18;;;333.00;2329.60;;;;;;5057162;28;20498;-81
2021/05/19 00:52:38;;;;;;;10.30;6.38;;;333.00;2329.60;;;;;;5057309;28;20021;-81
2021/05/19 00:55:05;;;;;;;9.32;4.60;;;333.00;2329.60;;;;;;5045094;28;20025;-81
2021/05/19 00:57:31;;;;;;;6.43;4.50;;;333.00;2329.60;;;;;;5069039;28;20025;-80
2021/05/19 00:59:58;;;;;;;8.20;5.13;;;333.00;2329.60;;;;;;5065873;28;20483;-81
2021/05/19 01:02:24;;;;;;;8.73;5.00;;;333.00;2329.60;;;;;;5042949;28;20017;-81
2021/05/19 01:04:50;;;;;;;9.60;4.97;;;333.10;2329.60;;;;;;5066849;28;20027;-81
2021/05/19 01:07:25;;;;;;;9.20;4.15;;;333.20;2329.60;;;;;;5056417;28;20052;-82
2021/05/19 01:09:51;;;;;;;7.45;5.15;;;333.30;2329.60;;;;;;5062986;28;20025;-82
2021/05/19 01:12:20;;;;;;;11.35;5.60;;;333.30;2329.60;;;;;;5074808;28;20031;-83
2021/05/19 01:14:46;;;;;;;6.35;4.57;;;333.30;2329.60;;;;;;5057205;28;20055;-82
2021/05/19 01:17:13;;;;;;;6.80;4.90;;;333.20;2329.60;;;;;;5062077;28;20025;-82
2021/05/19 01:19:45;;;;;;;9.80;4.97;;;333.00;2329.60;;;;;;5056733;28;20409;-82
2021/05/19 01:22:13;;;;;;;7.60;5.38;;;333.00;2329.60;;;;;;5057141;28;20016;-83
2021/05/19 01:24:40;;;;;;;7.90;5.63;;;333.00;2329.60;;;;;;5056777;28;20408;-83
2021/05/19 01:27:07;;;;;;;6.35;5.35;;;333.10;2329.60;;;;;;5057285;28;20029;-83
2021/05/19 01:29:33;;;;;;;8.63;5.07;;;333.00;2329.60;;;;;;5074882;28;20063;-83
2021/05/19 01:32:00;;;;;;;12.38;5.85;;;333.10;2329.60;;;;;;5075127;28;20035;-83
2021/05/19 01:34:25;;;;;;;6.80;4.78;;;333.10;2329.60;;;;;;5072540;28;20032;-83
2021/05/19 01:36:51;;;;;;;9.02;5.10;;;333.20;2329.60;;;;;;5057248;28;20532;-83
2021/05/19 01:39:17;;;;;;;7.65;5.70;;;333.20;2329.60;;;;;;5074723;28;20104;-83
2021/05/19 01:41:43;;;;;;;9.02;4.85;;;333.30;2329.60;;;;;;5056502;28;20025;-83
2021/05/19 01:44:11;;;;;;;9.90;6.03;;;333.30;2329.60;;;;;;5074537;28;20528;-82
2021/05/19 01:46:37;;;;;;;7.80;4.45;;;333.30;2329.60;;;;;;5055964;28;20048;-81
2021/05/19 01:49:05;;;;;;;11.20;4.95;;;333.00;2329.60;;;;;;5055902;28;20056;-80
2021/05/19 01:51:31;;;;;;;7.50;4.97;;;333.10;2329.60;;;;;;5055594;28;20039;-81
2021/05/19 01:53:57;;;;;;;6.70;4.20;;;333.10;2329.60;;;;;;5072197;28;20115;-81
2021/05/19 01:56:22;;;;;;;9.25;4.88;;;333.10;2329.60;;;;;;5073859;28;20455;-81
2021/05/19 01:58:48;;;;;;;11.70;5.93;;;333.00;2329.60;;;;;;5056103;28;20028;-81
2021/05/19 02:01:14;;;;;;;7.13;4.72;;;332.90;2329.60;;;;;;5073876;28;20467;-80
2021/05/19 02:03:40;;;;;;;7.97;5.05;;;332.90;2329.60;;;;;;5055861;28;20103;-80
2021/05/19 02:06:05;;;;;;;10.23;6.00;;;332.80;2329.60;;;;;;5069522;28;20506;-80
2021/05/19 02:08:31;;;;;;;9.77;5.85;;;308.10;2304.00;;;;;;5063029;28;20031;-80
2021/05/19 02:10:57;;;;;;;12.65;6.28;;;308.10;2304.00;;;;;;5059695;28;20403;-79
2021/05/19 02:13:23;;;;;;;10.90;6.38;;;332.80;2329.60;;;;;;5055407;28;20111;-79
2021/05/19 02:15:49;;;;;;;9.88;6.10;;;332.90;2329.60;;;;;;5073374;28;20121;-79
2021/05/19 02:18:15;;;;;;;9.98;5.85;;;333.00;2329.60;;;;;;5048483;28;20024;-79
2021/05/19 02:20:41;;;;;;;8.70;4.75;;;333.00;2329.60;;;;;;5048509;28;20024;-79
2021/05/19 02:23:06;;;;;;;9.95;6.00;;;333.20;2329.60;;;;;;5055010;28;20032;-80
2021/05/19 02:25:33;;;;;;;10.27;5.80;;;333.20;2329.60;;;;;;5062859;28;20108;-82
2021/05/19 02:27:58;;;;;;;8.43;4.90;;;333.30;2329.60;;;;;;5055354;28;20133;-82
2021/05/19 02:30:27;;;;;;;12.68;6.22;;;333.30;2329.60;;;;;;5072562;28;20475;-81
2021/05/19 02:32:53;;;;;;;11.85;6.22;;;333.40;2329.60;;;;;;5055420;28;20028;-80
2021/05/19 02:35:19;;;;;;;10.73;6.32;;;333.50;2329.60;;;;;;5047159;28;20056;-81
2021/05/19 02:37:46;;;;;;;11.32;5.38;;;333.50;2329.60;;;;;;5066168;28;20021;-81
2021/05/19 02:40:14;;;;;;;12.00;5.63;;;333.60;2329.60;;;;;;5072997;28;20464;-81
2021/05/19 02:42:44;;;;;;;8.32;5.47;;;333.60;2329.60;;;;;;5055566;28;20020;-81
2021/05/19 02:45:10;;;;;;;11.93;6.85;;;333.60;2329.60;;;;;;5067528;28;20114;-81
2021/05/19 02:47:36;;;;;;;8.10;5.53;;;333.60;2329.60;;;;;;5066687;28;20078;-80
2021/05/19 02:50:04;;;;;;;12.10;6.75;;;333.70;2329.60;;;;;;5060192;28;20360;-80
2021/05/19 02:52:30;;;;;;;10.68;6.43;;;333.70;2329.60;;;;;;5054787;28;20017;-80
2021/05/19 02:54:56;;;;;;;9.77;6.35;;;333.70;2329.60;;;;;;5071580;28;20411;-80
2021/05/19 02:57:21;;;;;;;13.20;6.95;;;333.70;2329.60;;;;;;5070075;28;20029;-80
2021/05/19 02:59:47;;;;;;;11.10;6.65;;;333.70;2329.60;;;;;;5062211;28;20052;-81
2021/05/19 03:02:13;;;;;;;9.43;6.30;;;333.70;2329.60;;;;;;5071645;28;20035;-80
2021/05/19 03:04:39;;;;;;;12.23;6.25;;;333.70;2329.60;;;;;;5072841;28;20040;-79
2021/05/19 03:07:05;;;;;;;9.10;5.50;;;333.70;2329.60;;;;;;5054041;28;20032;-79
2021/05/19 03:09:30;;;;;;;11.07;5.72;;;333.60;2329.60;;;;;;5072798;28;20020;-79
2021/05/19 03:11:56;;;;;;;14.15;6.60;;;333.70;2329.60;;;;;;5071252;28;20032;-80
2021/05/19 03:14:22;;;;;;;27.60;18.23;;;333.70;2329.60;;;;;;5054753;28;20036;-80
2021/05/19 03:16:48;;;;;;;29.55;18.33;;;333.70;2329.60;;;;;;5070830;28;20034;-80
2021/05/19 03:19:14;;;;;;;25.58;17.48;;;358.40;2329.60;;;;;;5071330;28;20024;-80
2021/05/19 03:21:39;;;;;;;27.67;14.93;;;358.40;2329.60;;;;;;5070616;28;20471;-80
2021/05/19 03:24:05;;;;;;;16.88;11.20;;;358.40;2329.60;;;;;;5070395;28;20460;-80
2021/05/19 03:26:32;;;;;;;16.45;12.55;;;358.40;2329.60;;;;;;5054677;28;20115;-80
2021/05/19 03:28:58;;;;;;;19.20;13.77;;;358.50;2329.60;;;;;;5054497;28;20024;-80
2021/05/19 03:31:24;;;;;;;21.20;9.63;;;358.50;2329.60;;;;;;5072464;28;20025;-80
2021/05/19 03:33:50;;;;;;;12.98;7.88;;;358.40;2329.60;;;;;;5053957;28;20083;-80
2021/05/19 03:36:15;;;;;;;11.45;8.48;;;333.70;2329.60;;;;;;5072364;28;20032;-80
2021/05/19 03:38:41;;;;;;;12.55;9.13;;;358.40;2329.60;;;;;;5072130;28;20025;-80
2021/05/19 03:41:08;;;;;;;16.38;9.35;;;358.40;2329.60;;;;;;5054368;28;20048;-81
2021/05/19 03:43:34;;;;;;;13.68;9.98;;;358.50;2329.60;;;;;;5053955;28;20024;-81
2021/05/19 03:46:00;;;;;;;11.85;8.43;;;358.60;2329.60;;;;;;5072243;28;20075;-81
2021/05/19 03:48:26;;;;;;;16.83;8.27;;;358.70;2329.60;;;;;;5072211;28;20471;-81
2021/05/19 03:50:52;;;;;;;12.25;8.57;;;358.70;2329.60;;;;;;5053838;28;20107;-81
2021/05/19 03:53:18;;;;;;;13.93;8.63;;;358.80;2329.60;;;;;;5054182;28;20028;-80
2021/05/19 03:55:45;;;;;;;12.65;9.07;;;358.80;2329.60;;;;;;5069789;28;20094;-81
2021/05/19 03:58:12;;;;;;;15.13;9.38;;;358.60;2329.60;;;;;;5053926;28;20029;-80
2021/05/19 04:00:38;;;;;;;13.05;8.38;;;358.60;2329.60;;;;;;5071693;28;20140;-80
2021/05/19 04:03:05;;;;;;;11.57;7.30;;;358.70;2329.60;;;;;;5072471;28;20146;-82
2021/05/19 04:05:35;;;;;;;12.07;8.20;;;358.80;2329.60;;;;;;5072036;28;20035;-81
2021/05/19 04:08:01;;;;;;;12.13;7.72;;;358.90;2329.60;;;;;;5070194;28;20031;-83
2021/05/19 04:10:27;;;;;;;13.75;8.90;;;359.00;2329.60;;;;;;5071312;28;20480;-82
2021/05/19 04:12:53;;;;;;;16.15;10.57;;;358.90;2329.60;;;;;;5053883;28;20467;-81
2021/05/19 04:15:21;;;;;;;20.58;13.10;;;358.90;2329.60;;;;;;5053515;28;20056;-81
2021/05/19 04:17:47;;;;;;;30.55;14.23;;;359.00;2329.60;;;;;;5070166;28;20021;-81
2021/05/19 04:20:13;;;;;;;23.17;12.85;;;359.10;2329.60;;;;;;5055332;28;20021;-82
2021/05/19 04:22:39;;;;;;;20.77;12.95;;;359.20;2329.60;;;;;;5053670;28;20024;-81
2021/05/19 04:25:07;;;;;;;23.30;11.95;;;359.30;2329.60;;;;;;5054045;28;20041;-82
2021/05/19 04:27:33;;;;;;;29.67;16.88;;;359.30;2329.60;;;;;;5054107;28;20025;-82
2021/05/19 04:29:59;;;;;;;24.75;11.73;;;359.30;2329.60;;;;;;5072264;28;20499;-82
2021/05/19 04:32:25;;;;;;;18.27;9.30;;;384.00;2329.60;;;;;;5053532;28;20021;-80
2021/05/19 04:34:51;;;;;;;21.85;10.65;;;384.10;2329.60;;;;;;5070925;28;20090;-80
2021/05/19 04:37:17;;;;;;;17.35;9.77;;;384.10;2329.60;;;;;;5053550;28;20029;-80
2021/05/19 04:39:43;;;;;;;17.38;11.07;;;384.20;2329.60;;;;;;5053100;28;20035;-80
2021/05/19 04:42:09;;;;;;;17.75;9.23;;;384.30;2329.60;;;;;;5053429;28;20029;-82
2021/05/19 04:44:34;;;;;;;16.58;8.93;;;384.30;2329.60;;;;;;5053353;28;20031;-80
2021/05/19 04:47:00;;;;;;;15.95;7.82;;;384.30;2329.60;;;;;;5051959;28;20028;-82
2021/05/19 04:49:26;;;;;;;17.23;8.80;;;384.30;2329.60;;;;;;5053737;28;20091;-82
2021/05/19 04:51:52;;;;;;;11.95;7.28;;;384.30;2329.60;;;;;;5061638;28;20021;-81
2021/05/19 04:54:19;;;;;;;22.52;8.77;;;384.40;2329.60;;;;;;5053085;28;20124;-81
2021/05/19 04:56:44;;;;;;;10.52;6.55;;;384.40;2329.60;;;;;;5053334;28;20036;-81
2021/05/19 04:59:10;;;;;;;7.20;4.90;;;384.60;2329.60;;;;;;5065850;28;20025;-82
2021/05/19 05:01:36;;;;;;;10.80;7.53;;;384.60;2278.40;;;;;;5071703;28;20067;-82
2021/05/19 05:04:02;;;;;;;11.93;6.82;;;384.60;2329.60;;;;;;5052694;28;20016;-79
2021/05/19 05:06:28;;;;;;;12.27;7.82;;;384.60;2329.60;;;;;;5070572;28;20104;-80
2021/05/19 05:08:54;;;;;;;10.77;6.57;;;384.60;2329.60;;;;;;5053271;28;20077;-78
2021/05/19 05:11:20;;;;;;;16.67;7.18;;;384.80;2329.60;;;;;;5050882;28;20021;-78
2021/05/19 05:13:46;;;;;;;11.38;6.10;;;384.80;2329.60;;;;;;5074809;28;20950;-79
2021/05/19 05:16:14;;;;;;;10.85;6.18;;;384.90;2329.60;;;;;;5058340;28;20115;-78
2021/05/19 05:18:41;;;;;;;11.80;7.53;;;409.70;2355.20;;;;;;5056714;28;20025;-78
2021/05/19 05:21:08;;;;;;;16.70;7.15;;;409.80;2355.20;;;;;;5072956;28;20032;-78
2021/05/19 05:23:34;;;;;;;10.75;7.97;;;409.80;2355.20;;;;;;5074558;28;20049;-78
2021/05/19 05:26:01;;;;;;;9.82;7.63;;;409.60;2355.20;;;;;;5074187;28;20391;-79
2021/05/19 05:28:28;;;;;;;10.18;6.15;;;409.80;2355.20;;;;;;5074266;28;20103;-79
2021/05/19 05:30:55;;;;;;;11.35;6.45;;;410.00;2355.20;;;;;;5056125;28;20056;-81
2021/05/19 05:33:21;;;;;;;13.30;7.78;;;410.10;2355.20;;;;;;5055972;28;20040;-80
2021/05/19 05:35:46;;;;;;;9.48;6.70;;;410.10;2355.20;;;;;;5039093;28;20037;-80
2021/05/19 05:38:12;;;;;;;12.32;7.05;;;410.10;2355.20;;;;;;5055625;28;20021;-81
2021/05/19 05:40:38;;;;;;;9.52;6.65;;;410.30;2355.20;;;;;;5058047;28;20127;-81
2021/05/19 05:43:04;;;;;;;10.32;6.47;;;410.30;2355.20;;;;;;5073536;28;20109;-80
2021/05/19 05:45:30;;;;;;;11.93;6.63;;;410.30;2355.20;;;;;;5073665;28;20029;-80
2021/05/19 05:47:56;;;;;;;16.63;7.57;;;410.40;2355.20;;;;;;5055273;28;20034;-80
2021/05/19 05:50:22;;;;;;;14.38;7.43;;;410.30;2355.20;;;;;;5055572;28;20446;-80
2021/05/19 05:52:48;;;;;;;9.63;6.53;;;410.50;2355.20;;;;;;5073171;28;20029;-80
2021/05/19 05:55:14;;;;;;;11.60;6.80;;;410.40;2355.20;;;;;;5072285;28;20078;-79
2021/05/19 05:57:40;;;;;;;8.85;6.65;;;410.30;2355.20;;;;;;5073401;28;20016;-82
2021/05/19 06:00:09;;;;;;;13.25;7.18;;;410.50;2355.20;;;;;;5071765;28;20028;-80
2021/05/19 06:02:35;;;;;;;9.48;6.90;;;435.20;2355.20;;;;;;5054856;28;20025;-80
2021/05/19 06:05:01;;;;;;;14.60;7.57;;;435.20;2355.20;;;;;;5054932;28;20024;-82
2021/05/19 06:07:27;;;;;;;10.40;7.38;;;435.40;2355.20;;;;;;5055433;28;20028;-84
2021/05/19 06:09:53;;;;;;;12.98;8.38;;;435.40;2355.20;;;;;;5054806;28;20082;-83
2021/05/19 06:12:21;;;;;;;8.50;6.68;;;435.40;2355.20;;;;;;5073445;28;20024;-80
2021/05/19 06:14:50;;;;;;;12.45;7.53;;;435.40;2355.20;;;;;;5054354;28;20036;-80
2021/05/19 06:17:16;;;;;;;13.60;7.38;;;435.50;2355.20;;;;;;5056703;28;20044;-81
2021/05/19 06:22:50;;;;;;;10.75;6.85;;;435.60;2329.60;;;;;;5090179;27;20362;-83
2021/05/19 06:25:16;;;;;;;11.40;7.45;;;435.90;2304.00;;;;;;5104758;28;20418;-79
2021/05/19 06:39:53;;;;;;;8.77;5.35;;;486.60;1996.80;;;;;;5106147;27;20421;-81
2021/05/19 06:50:32;;;;;;;8.65;5.68;;;487.20;1817.60;;;;;;5105689;27;20358;-82
2021/05/19 06:52:58;;;;;;;9.32;5.15;;;487.30;1868.80;;;;;;5096078;28;20021;-80
2021/05/19 06:55:24;;;;;;;10.65;6.15;;;486.80;1920.00;;;;;;5094085;28;20058;-82
2021/05/19 06:57:51;;;;;;;12.32;6.38;;;486.90;1945.60;;;;;;5096725;28;20029;-82
2021/05/19 07:00:17;;;;;;;10.48;6.75;;;487.10;1996.80;;;;;;5101074;28;20403;-82
2021/05/19 07:02:43;;;;;;;13.82;6.40;;;487.30;1945.60;;;;;;5096365;28;20032;-82
2021/05/19 07:05:09;;;;;;;9.00;5.53;;;512.30;1868.80;;;;;;5097192;28;20039;-82
2021/05/19 07:07:36;;;;;;;11.68;6.65;;;512.60;1843.20;;;;;;5092069;28;20031;-81
2021/05/19 07:10:03;;;;;;;14.00;5.93;;;512.80;1792.00;;;;;;5088496;28;20016;-80
2021/05/19 07:12:29;;;;;;;12.52;6.65;;;512.70;1817.60;;;;;;5087195;28;20135;-80
2021/05/19 07:14:57;;;;;;;14.85;6.22;;;512.60;1792.00;;;;;;5087572;28;20119;-80
2021/05/19 07:17:23;;;;;;;7.60;5.65;;;537.60;1792.00;;;;;;5086459;28;20024;-79
2021/05/19 07:19:49;;;;;;;9.60;6.15;;;512.80;1766.40;;;;;;5088636;28;20039;-80
2021/05/19 07:22:15;;;;;;;9.10;5.63;;;537.70;1766.40;;;;;;5088298;28;20078;-80
2021/05/19 07:24:40;;;;;;;10.32;5.55;;;538.30;1740.80;;;;;;5101349;28;20032;-80
2021/05/19 07:27:06;;;;;;;10.32;5.38;;;563.60;1715.20;;;;;;5089662;28;20036;-79
2021/05/19 07:29:32;;;;;;;9.63;5.22;;;563.70;1664.00;;;;;;5090834;28;20028;-80
2021/05/19 07:31:59;;;;;;;8.02;5.13;;;563.80;1638.40;;;;;;5090244;28;20024;-79
2021/05/19 07:34:25;;;;;;;8.73;5.28;;;563.90;1638.40;;;;;;5095757;28;20427;-79
2021/05/19 07:36:51;;;;;;;11.55;5.95;;;563.80;1638.40;;;;;;5098699;28;20024;-79
2021/05/19 07:39:18;;;;;;;9.20;5.30;;;563.70;1638.40;;;;;;5095756;28;20029;-79
2021/05/19 07:41:44;;;;;;;11.82;5.45;;;563.50;1664.00;;;;;;5093440;28;20032;-79
2021/05/19 07:44:10;;;;;;;9.20;4.93;;;563.20;1689.60;;;;;;5092280;28;20077;-79
2021/05/19 07:46:37;;;;;;;8.30;4.75;;;538.50;1664.00;;;;;;5096682;28;20036;-79
2021/05/19 07:49:03;;;;;;;10.02;5.38;;;538.30;1664.00;;;;;;5095505;28;20127;-79
2021/05/19 07:51:29;;;;;;;10.55;4.43;;;538.10;1664.00;;;;;;5092137;28;20048;-79
2021/05/19 07:53:55;;;;;;;8.13;4.95;;;537.70;1689.60;;;;;;5089281;28;20032;-79
2021/05/19 07:56:51;;;;;;;5.22;3.42;;;538.10;1664.00;;;;;;5089615;28;20020;-79
2021/05/19 07:59:12;;;;;;;12.57;5.78;;;563.20;1612.80;;;;;;5094888;28;20036;-79
2021/05/19 08:04:05;;;;;;;8.45;3.78;;;538.50;1664.00;;;;;;5075629;28;20162;-78
2021/05/19 08:06:31;;;;;;;11.90;5.20;;;563.50;1664.00;;;;;;5071313;28;20036;-79
2021/05/19 08:08:57;;;;;;;14.50;5.13;;;563.60;1638.40;;;;;;5072640;28;20028;-79
2021/05/19 08:11:24;;;;;;;9.07;5.50;;;563.20;1638.40;;;;;;5075174;28;20407;-79
2021/05/19 08:13:49;;;;;;;8.27;3.92;;;563.50;1638.40;;;;;;5080767;28;20073;-80
2021/05/19 08:16:16;;;;;;;6.88;3.65;;;538.40;1612.80;;;;;;5075993;28;20020;-80
2021/05/19 08:18:42;;;;;;;14.45;6.00;;;563.20;1664.00;;;;;;5080499;28;20038;-79
2021/05/19 08:21:09;;;;;;;14.18;4.68;;;563.20;1689.60;;;;;;5081876;28;20028;-80
2021/05/19 08:23:34;;;;;;;7.70;4.55;;;538.20;1664.00;;;;;;5080728;28;20062;-79
2021/05/19 08:26:00;;;;;;;7.78;4.85;;;538.50;1664.00;;;;;;5072694;28;20814;-79
2021/05/19 08:28:26;;;;;;;13.85;7.25;;;538.30;1664.00;;;;;;5080984;28;20118;-80
2021/05/19 08:30:52;;;;;;;12.20;6.03;;;538.00;1715.20;;;;;;5079302;28;20020;-80
2021/05/19 08:33:18;;;;;;;11.55;6.97;;;537.60;1715.20;;;;;;5072541;28;20391;-80
2021/05/19 08:35:44;;;;;;;13.43;5.60;;;512.70;1740.80;;;;;;5077915;28;20024;-80
2021/05/19 08:38:10;;;;;;;8.68;5.50;;;512.60;1766.40;;;;;;5074136;28;20047;-80
2021/05/19 08:40:37;;;;;;;11.05;6.40;;;512.40;1766.40;;;;;;5073352;28;20059;-80
2021/05/19 08:43:03;;;;;;;8.30;5.13;;;512.30;1792.00;;;;;;5072420;28;20017;-80
2021/05/19 08:45:29;;;;;;;9.90;5.88;;;512.30;1766.40;;;;;;5073452;28;20021;-79
2021/05/19 08:48:07;;;;;;;9.23;5.93;;;512.50;1740.80;;;;;;5073306;28;20395;-80
2021/05/19 08:50:35;;;;;;;9.40;6.25;;;512.60;1715.20;;;;;;5071916;28;20052;-80
2021/05/19 08:53:01;;;;;;;16.02;6.43;;;512.50;1740.80;;;;;;5071461;28;20048;-80
2021/05/19 08:55:27;;;;;;;8.15;5.25;;;512.30;1740.80;;;;;;5072501;28;20047;-77
2021/05/19 08:57:54;;;;;;;8.77;4.88;;;512.50;1766.40;;;;;;5071836;28;20556;-77
2021/05/19 09:00:21;;;;;;;8.70;4.43;;;512.50;1766.40;;;;;;5086081;28;20460;-77
2021/05/19 09:03:12;;;;;;;8.25;4.43;;;512.50;1792.00;;;;;;5072220;28;20029;-77
2021/05/19 09:05:39;;;;;;;6.40;4.13;;;512.50;1766.40;;;;;;5069905;28;20033;-80
2021/05/19 09:08:13;;;;;;;5.95;3.50;;;512.60;1817.60;;;;;;5072682;28;20028;-80
2021/05/19 09:10:41;;;;;;;4.97;3.33;;;512.50;1817.60;;;;;;5072145;28;20043;-80
2021/05/19 09:13:07;;;;;;;6.38;3.55;;;512.50;1792.00;;;;;;5080885;28;20072;-77
2021/05/19 09:15:50;;;;;;;8.90;5.72;;;512.50;1868.80;;;;;;5087024;28;20016;-78
2021/05/19 09:18:16;;;;;;;7.75;5.30;;;512.50;1971.20;;;;;;5087493;28;20017;-78
2021/05/19 09:20:47;;;;;;;6.70;5.22;;;512.30;1996.80;;;;;;5071970;28;20060;-80
2021/05/19 09:23:21;;;;;;;9.23;6.28;;;512.10;2022.40;;;;;;5073341;28;20024;-81
2021/05/19 09:26:04;;;;;;;9.82;6.38;;;512.00;2073.60;;;;;;5074918;28;20108;-81
2021/05/19 09:28:30;;;;;;;12.13;6.18;;;487.10;2176.00;;;;;;5059360;28;20166;-81
2021/05/19 09:30:57;;;;;;;10.32;6.47;;;486.80;2201.60;;;;;;5071752;28;20025;-79
2021/05/19 09:33:26;;;;;;;10.63;6.03;;;486.80;2201.60;;;;;;5081180;28;20035;-81
2021/05/19 09:36:21;;;;;;;10.43;7.70;;;486.80;2227.20;;;;;;5080144;28;20013;-80
2021/05/19 09:38:52;;;;;;;8.85;6.32;;;486.40;2304.00;;;;;;5071709;28;20035;-81
2021/05/19 09:41:31;;;;;;;12.18;8.93;;;461.40;2380.80;;;;;;5072392;28;20157;-79
2021/05/19 09:43:59;;;;;;;8.90;7.10;;;461.10;2380.80;;;;;;5070847;28;20028;-80
2021/05/19 09:49:31;;;;;;;11.90;7.82;;;461.20;2355.20;;;;;;5071813;28;20168;-81
2021/05/19 09:52:07;;;;;;;11.70;7.15;;;461.40;2355.20;;;;;;5070062;28;20086;-82
2021/05/19 09:54:38;;;;;;;10.88;7.10;;;461.50;2329.60;;;;;;5085536;28;20069;-81
2021/05/19 09:57:05;;;;;;;10.13;7.28;;;461.60;2380.80;;;;;;5075692;28;20051;-81
2021/05/19 09:59:31;;;;;;;7.93;6.32;;;461.60;2355.20;;;;;;5074456;28;20024;-81
2021/05/19 10:02:00;;;;;;;8.48;6.25;;;461.50;2355.20;;;;;;5069199;28;20039;-81
2021/05/19 10:04:38;;;;;;;11.50;8.50;;;461.40;2380.80;;;;;;5071035;28;20101;-81
2021/05/19 10:07:16;;;;;;;14.02;7.93;;;461.40;2380.80;;;;;;5069180;28;20487;-81
2021/05/19 10:09:42;;;;;;;23.40;17.58;;;461.20;2380.80;;;;;;5071758;28;20149;-81
2021/05/19 10:12:09;;;;;;;14.07;9.85;;;461.10;2380.80;;;;;;5073005;28;20099;-81
2021/05/19 10:14:36;;;;;;;9.88;7.38;;;461.20;2380.80;;;;;;5071616;28;20612;-82
2021/05/19 10:17:12;;;;;;;8.05;5.20;;;461.40;2355.20;;;;;;5070923;28;20017;-82
2021/05/19 10:19:47;;;;;;;10.20;6.68;;;461.50;2329.60;;;;;;5065413;28;20051;-82
2021/05/19 10:22:15;;;;;;;12.18;7.43;;;486.50;2304.00;;;;;;5070903;28;20047;-82
2021/05/19 10:25:19;;;;;;;10.68;7.43;;;486.70;2304.00;;;;;;5065971;28;20437;-81
2021/05/19 10:27:55;;;;;;;9.45;7.07;;;486.90;2355.20;;;;;;5067350;28;20036;-81
2021/05/19 10:30:49;;;;;;;8.30;6.63;;;486.90;2304.00;;;;;;5082574;28;20029;-82
2021/05/19 10:33:30;;;;;;;10.80;6.75;;;486.90;2278.40;;;;;;5054614;28;20119;-82
2021/05/19 10:35:58;;;;;;;7.70;6.13;;;487.00;2252.80;;;;;;5088102;28;20029;-81
2021/05/19 10:38:28;;;;;;;8.07;5.82;;;487.20;2227.20;;;;;;5070000;28;20020;-81
2021/05/19 10:40:57;;;;;;;7.88;6.15;;;512.20;2176.00;;;;;;5067398;28;20036;-81
2021/05/19 10:43:53;;;;;;;6.72;5.15;;;512.30;2201.60;;;;;;5070582;28;20029;-81
2021/05/19 10:46:44;;;;;;;10.13;7.45;;;512.50;2150.40;;;;;;5063159;28;20031;-82
2021/05/19 10:49:10;;;;;;;10.65;8.85;;;512.60;2201.60;;;;;;5084894;28;20048;-82
2021/05/19 11:00:08;;;;;;;10.27;7.50;;;537.60;2201.60;;;;;;5067706;28;20064;-81
2021/05/19 11:02:53;;;;;;;9.82;7.65;;;537.90;2227.20;;;;;;5069913;28;20024;-82
2021/05/19 11:05:20;;;;;;;9.07;6.50;;;538.10;2227.20;;;;;;5070097;28;20024;-81
2021/05/19 11:08:10;;;;;;;10.68;8.23;;;538.10;2227.20;;;;;;5067812;28;20037;-81
2021/05/19 11:10:37;;;;;;;8.32;6.28;;;538.10;2201.60;;;;;;5075836;28;20502;-81
2021/05/19 11:13:04;;;;;;;10.20;6.40;;;537.70;2278.40;;;;;;5069486;28;20031;-83
2021/05/19 11:15:42;;;;;;;7.70;5.97;;;537.60;2355.20;;;;;;5067663;28;20025;-81
2021/05/19 11:18:17;;;;;;;12.23;6.97;;;512.80;2380.80;;;;;;5068983;28;20563;-81
2021/05/19 11:20:43;;;;;;;9.38;6.05;;;512.90;2329.60;;;;;;5065806;28;20067;-81
2021/05/19 11:23:13;;;;;;;8.90;6.32;;;512.90;2304.00;;;;;;5070088;28;20033;-81
2021/05/19 11:25:40;;;;;;;7.50;5.78;;;512.70;2304.00;;;;;;5070052;28;20021;-81
2021/05/19 11:28:06;;;;;;;7.20;5.95;;;512.40;2252.80;;;;;;5064555;28;20020;-81
2021/05/19 11:30:32;;;;;;;9.00;4.65;;;512.50;2278.40;;;;;;5069019;28;20506;-81
2021/05/19 11:33:10;;;;;;;8.40;5.10;;;512.50;2278.40;;;;;;5050522;28;20124;-81
2021/05/19 11:35:38;;;;;;;7.93;5.30;;;512.30;2278.40;;;;;;5071074;28;20051;-82
2021/05/19 11:38:12;;;;;;;6.55;4.35;;;512.30;2278.40;;;;;;5074199;28;20029;-82
2021/05/19 11:40:51;;;;;;;6.63;3.67;;;512.30;2278.40;;;;;;5069971;28;20035;-82
2021/05/19 11:43:20;;;;;;;7.80;5.45;;;512.30;2252.80;;;;;;5077718;28;20032;-81
2021/05/19 11:45:52;;;;;;;5.32;4.13;;;512.30;2252.80;;;;;;5076540;28;20039;-81
2021/05/19 11:48:19;;;;;;;5.93;4.13;;;512.20;2252.80;;;;;;5075374;28;20078;-82
2021/05/19 11:50:45;;;;;;;5.47;3.28;;;512.20;2278.40;;;;;;5086184;28;20042;-81
2021/05/19 11:53:11;;;;;;;5.38;4.18;;;512.20;2227.20;;;;;;5079310;28;20023;-82
2021/05/19 11:55:46;;;;;;;8.32;4.35;;;512.20;2278.40;;;;;;5076166;28;20544;-81
2021/05/19 11:58:24;;;;;;;4.78;2.92;;;512.00;2278.40;;;;;;5074064;28;20051;-81
2021/05/19 12:00:57;;;;;;;5.10;3.22;;;487.20;2252.80;;;;;;5075662;28;20021;-81
2021/05/19 12:03:24;;;;;;;6.03;3.22;;;487.10;2252.80;;;;;;5081600;28;20017;-81
2021/05/19 12:05:53;;;;;;;5.22;3.35;;;487.10;2304.00;;;;;;5075903;28;20056;-81
2021/05/19 12:08:22;;;;;;;5.43;3.67;;;486.90;2329.60;;;;;;5074672;28;20017;-81
2021/05/19 12:11:02;;;;;;;3.95;3.03;;;486.80;2355.20;;;;;;5086078;28;20648;-81
2021/05/19 12:13:29;;;;;;;5.47;3.30;;;486.70;2355.20;;;;;;5070899;28;20049;-83
2021/05/19 12:15:55;;;;;;;7.30;3.85;;;486.60;2380.80;;;;;;5072477;28;20492;-81
2021/05/19 12:18:20;;;;;;;5.95;3.72;;;486.60;2380.80;;;;;;5062859;28;20032;-87
2021/05/19 12:20:49;;;;;;;6.57;4.30;;;486.60;2380.80;;;;;;5075386;28;20025;-82
2021/05/19 12:23:15;;;;;;;5.20;3.10;;;486.70;2380.80;;;;;;5068714;28;20040;-85
2021/05/19 12:25:43;;;;;;;5.32;3.20;;;486.80;2380.80;;;;;;5073325;28;20021;-83
2021/05/19 12:28:10;;;;;;;6.55;4.32;;;486.90;2380.80;;;;;;5071832;28;20040;-83
2021/05/19 12:30:58;;;;;;;8.15;5.10;;;486.90;2380.80;;;;;;5072982;28;20395;-81
2021/05/19 12:33:26;;;;;;;8.02;5.75;;;486.90;2380.80;;;;;;5068443;28;20051;-81
2021/05/19 12:35:53;;;;;;;7.05;5.07;;;486.80;2380.80;;;;;;5081344;28;20024;-81
2021/05/19 12:38:24;;;;;;;5.90;3.58;;;486.80;2380.80;;;;;;5067605;28;20123;-81
2021/05/19 12:40:51;;;;;;;8.25;4.35;;;486.70;2380.80;;;;;;5072913;28;20021;-81
2021/05/19 12:43:24;;;;;;;5.13;2.95;;;486.60;2380.80;;;;;;5066287;28;20032;-81
2021/05/19 12:45:51;;;;;;;6.78;4.65;;;486.60;2380.80;;;;;;5073530;28;20063;-81
2021/05/19 12:48:20;;;;;;;7.90;4.40;;;486.70;2380.80;;;;;;5061463;28;20021;-81
2021/05/19 12:50:59;;;;;;;4.72;3.00;;;486.60;2380.80;;;;;;5071110;28;20055;-81
2021/05/19 12:53:45;;;;;;;5.13;3.85;;;486.60;2380.80;;;;;;5071954;28;20035;-81
2021/05/19 12:56:12;;;;;;;7.82;4.50;;;486.50;2329.60;;;;;;5088380;28;20021;-81